sensor_id;sensor_type;location;lat;lon;timestamp;pressure;altitude;pressure_sealevel;temperature;humidity
70323;BME280;57735;56.264;43.898;2023-08-17T00:00:21;101144.06;;;18.03;95.50
70323;BME280;57735;56.264;43.898;2023-08-17T00:02:52;101145.47;;;17.99;95.61
70323;BME280;57735;56.264;43.898;2023-08-17T00:05:23;101167.03;;;17.99;95.83
70323;BME280;57735;56.264;43.898;2023-08-17T00:07:54;101161.66;;;17.99;96.81
70323;BME280;57735;56.264;43.898;2023-08-17T00:10:26;101162.31;;;18.01;96.83
70323;BME280;57735;56.264;43.898;2023-08-17T00:13:03;101161.47;;;18.00;96.86
70323;BME280;57735;56.264;43.898;2023-08-17T00:15:36;101157.94;;;18.00;96.77
70323;BME280;57735;56.264;43.898;2023-08-17T00:18:09;101166.19;;;17.98;96.48
70323;BME280;57735;56.264;43.898;2023-08-17T00:20:40;101166.38;;;17.97;96.22
70323;BME280;57735;56.264;43.898;2023-08-17T00:23:14;101171.13;;;17.95;96.46
70323;BME280;57735;56.264;43.898;2023-08-17T00:25:45;101172.34;;;17.92;96.40
70323;BME280;57735;56.264;43.898;2023-08-17T00:28:18;101173.19;;;17.93;96.75
70323;BME280;57735;56.264;43.898;2023-08-17T00:30:50;101164.88;;;17.94;96.89
70323;BME280;57735;56.264;43.898;2023-08-17T00:33:21;101171.13;;;17.95;97.15
70323;BME280;57735;56.264;43.898;2023-08-17T00:35:51;101160.50;;;17.93;96.70
70323;BME280;57735;56.264;43.898;2023-08-17T00:38:22;101166.09;;;17.92;97.10
70323;BME280;57735;56.264;43.898;2023-08-17T00:40:53;101169.81;;;17.91;96.77
70323;BME280;57735;56.264;43.898;2023-08-17T00:43:25;101173.53;;;17.90;96.98
70323;BME280;57735;56.264;43.898;2023-08-17T00:45:56;101179.78;;;17.90;97.29
70323;BME280;57735;56.264;43.898;2023-08-17T00:48:28;101176.91;;;17.92;97.59
70323;BME280;57735;56.264;43.898;2023-08-17T00:51:02;101174.19;;;17.92;97.67
70323;BME280;57735;56.264;43.898;2023-08-17T00:53:33;101176.06;;;17.91;97.27
70323;BME280;57735;56.264;43.898;2023-08-17T00:56:04;101176.06;;;17.91;97.18
70323;BME280;57735;56.264;43.898;2023-08-17T00:58:35;101181.63;;;17.90;97.06
70323;BME280;57735;56.264;43.898;2023-08-17T01:01:09;101180.97;;;17.88;97.34
70323;BME280;57735;56.264;43.898;2023-08-17T01:03:40;101188.59;;;17.84;97.15
70323;BME280;57735;56.264;43.898;2023-08-17T01:06:13;101179.16;;;17.80;97.29
70323;BME280;57735;56.264;43.898;2023-08-17T01:08:44;101182.03;;;17.78;97.35
70323;BME280;57735;56.264;43.898;2023-08-17T01:16:47;101181.59;;;17.75;97.68
70323;BME280;57735;56.264;43.898;2023-08-17T01:19:29;101178.22;;;17.73;97.70
70323;BME280;57735;56.264;43.898;2023-08-17T01:22:03;101175.72;;;17.71;97.85
70323;BME280;57735;56.264;43.898;2023-08-17T01:24:35;101173.03;;;17.71;98.10
70323;BME280;57735;56.264;43.898;2023-08-17T01:27:08;101179.25;;;17.72;97.89
70323;BME280;57735;56.264;43.898;2023-08-17T01:29:41;101170.31;;;17.71;98.01
70323;BME280;57735;56.264;43.898;2023-08-17T01:32:17;101169.47;;;17.71;98.36
70323;BME280;57735;56.264;43.898;2023-08-17T01:34:56;101168.63;;;17.70;98.35
70323;BME280;57735;56.264;43.898;2023-08-17T01:37:31;101176.72;;;17.70;98.05
70323;BME280;57735;56.264;43.898;2023-08-17T01:40:04;101175.06;;;17.69;98.50
70323;BME280;57735;56.264;43.898;2023-08-17T01:42:36;101175.72;;;17.71;98.72
70323;BME280;57735;56.264;43.898;2023-08-17T01:45:08;101179.91;;;17.74;98.45
70323;BME280;57735;56.264;43.898;2023-08-17T01:47:39;101192.00;;;17.78;98.75
70323;BME280;57735;56.264;43.898;2023-08-17T01:50:12;101191.63;;;17.81;98.22
70323;BME280;57735;56.264;43.898;2023-08-17T01:52:42;101197.50;;;17.85;98.30
70323;BME280;57735;56.264;43.898;2023-08-17T01:55:13;101198.66;;;17.90;97.91
70323;BME280;57735;56.264;43.898;2023-08-17T01:57:44;101208.53;;;17.98;97.87
70323;BME280;57735;56.264;43.898;2023-08-17T02:00:15;101211.16;;;18.06;97.65
70323;BME280;57735;56.264;43.898;2023-08-17T02:02:46;101205.03;;;18.12;97.30
70323;BME280;57735;56.264;43.898;2023-08-17T02:05:17;101208.03;;;18.17;96.93
70323;BME280;57735;56.264;43.898;2023-08-17T02:07:48;101213.72;;;18.22;96.66
70323;BME280;57735;56.264;43.898;2023-08-17T02:10:19;101208.81;;;18.26;96.17
70323;BME280;57735;56.264;43.898;2023-08-17T02:12:50;101219.03;;;18.30;95.78
70323;BME280;57735;56.264;43.898;2023-08-17T02:15:21;101225.75;;;18.34;95.58
70323;BME280;57735;56.264;43.898;2023-08-17T02:17:52;101220.81;;;18.38;95.06
70323;BME280;57735;56.264;43.898;2023-08-17T02:20:23;101225.03;;;18.40;94.84
70323;BME280;57735;56.264;43.898;2023-08-17T02:22:54;101216.53;;;18.43;94.28
70323;BME280;57735;56.264;43.898;2023-08-17T02:25:27;101223.06;;;18.49;94.29
70323;BME280;57735;56.264;43.898;2023-08-17T02:28:05;101205.28;;;18.55;94.12
70323;BME280;57735;56.264;43.898;2023-08-17T02:30:36;101205.63;;;18.60;93.56
70323;BME280;57735;56.264;43.898;2023-08-17T02:33:07;101204.19;;;18.64;93.38
70323;BME280;57735;56.264;43.898;2023-08-17T02:35:38;101215.28;;;18.69;93.32
70323;BME280;57735;56.264;43.898;2023-08-17T02:38:09;101214.91;;;18.72;92.99
70323;BME280;57735;56.264;43.898;2023-08-17T02:40:40;101215.56;;;18.74;92.54
70323;BME280;57735;56.264;43.898;2023-08-17T02:43:10;101222.06;;;18.79;92.55
70323;BME280;57735;56.264;43.898;2023-08-17T02:45:41;101228.78;;;18.83;92.50
70323;BME280;57735;56.264;43.898;2023-08-17T02:48:12;101228.25;;;18.88;92.12
70323;BME280;57735;56.264;43.898;2023-08-17T02:50:46;101233.94;;;18.93;91.77
70323;BME280;57735;56.264;43.898;2023-08-17T02:53:16;101223.75;;;18.95;91.23
70323;BME280;57735;56.264;43.898;2023-08-17T02:55:47;101212.56;;;18.98;91.07
70323;BME280;57735;56.264;43.898;2023-08-17T02:58:18;101217.59;;;19.01;90.92
70323;BME280;57735;56.264;43.898;2023-08-17T03:00:52;101218.44;;;19.02;90.56
70323;BME280;57735;56.264;43.898;2023-08-17T03:03:25;101218.06;;;19.05;90.89
70323;BME280;57735;56.264;43.898;2023-08-17T03:05:56;101218.53;;;19.08;90.73
70323;BME280;57735;56.264;43.898;2023-08-17T03:08:27;101217.94;;;19.13;90.44
70323;BME280;57735;56.264;43.898;2023-08-17T03:10:57;101225.50;;;19.17;90.24
70323;BME280;57735;56.264;43.898;2023-08-17T03:13:28;101224.47;;;19.18;89.94
70323;BME280;57735;56.264;43.898;2023-08-17T03:15:59;101223.25;;;19.21;89.83
70323;BME280;57735;56.264;43.898;2023-08-17T03:18:30;101227.88;;;19.27;89.65
70323;BME280;57735;56.264;43.898;2023-08-17T03:21:01;101239.16;;;19.31;89.28
70323;BME280;57735;56.264;43.898;2023-08-17T03:23:34;101241.13;;;19.37;89.25
70323;BME280;57735;56.264;43.898;2023-08-17T03:26:05;101244.66;;;19.37;88.79
70323;BME280;57735;56.264;43.898;2023-08-17T03:28:36;101239.72;;;19.41;88.91
70323;BME280;57735;56.264;43.898;2023-08-17T03:31:10;101233.53;;;19.47;88.64
70323;BME280;57735;56.264;43.898;2023-08-17T03:33:41;101230.50;;;19.50;88.47
70323;BME280;57735;56.264;43.898;2023-08-17T03:36:12;101234.13;;;19.57;88.59
70323;BME280;57735;56.264;43.898;2023-08-17T03:38:42;101229.97;;;19.61;88.16
70323;BME280;57735;56.264;43.898;2023-08-17T03:41:13;101237.53;;;19.66;87.79
70323;BME280;57735;56.264;43.898;2023-08-17T03:43:51;101239.66;;;19.70;87.70
70323;BME280;57735;56.264;43.898;2023-08-17T03:46:22;101243.00;;;19.72;87.38
70323;BME280;57735;56.264;43.898;2023-08-17T03:48:53;101243.25;;;19.77;87.26
70323;BME280;57735;56.264;43.898;2023-08-17T03:51:23;101248.94;;;19.82;87.18
70323;BME280;57735;56.264;43.898;2023-08-17T03:53:54;101244.16;;;19.84;86.71
70323;BME280;57735;56.264;43.898;2023-08-17T03:56:27;101244.81;;;19.86;86.51
70323;BME280;57735;56.264;43.898;2023-08-17T03:58:58;101250.69;;;19.90;86.26
70323;BME280;57735;56.264;43.898;2023-08-17T04:01:29;101241.59;;;19.98;86.09
70323;BME280;57735;56.264;43.898;2023-08-17T04:04:02;101255.38;;;20.03;85.91
70323;BME280;57735;56.264;43.898;2023-08-17T04:06:34;101243.34;;;20.05;85.71
70323;BME280;57735;56.264;43.898;2023-08-17T04:09:05;101246.22;;;20.04;85.52
70323;BME280;57735;56.264;43.898;2023-08-17T04:11:36;101257.72;;;20.06;85.48
70323;BME280;57735;56.264;43.898;2023-08-17T04:14:09;101253.31;;;20.05;85.48
70323;BME280;57735;56.264;43.898;2023-08-17T04:16:42;101255.38;;;20.03;84.92
70323;BME280;57735;56.264;43.898;2023-08-17T04:19:13;101256.22;;;20.03;85.04
70323;BME280;57735;56.264;43.898;2023-08-17T04:21:44;101249.78;;;20.04;85.03
70323;BME280;57735;56.264;43.898;2023-08-17T04:24:15;101245.06;;;20.13;84.71
70323;BME280;57735;56.264;43.898;2023-08-17T04:26:46;101250.59;;;20.26;84.44
70323;BME280;57735;56.264;43.898;2023-08-17T04:29:17;101251.88;;;20.30;84.24
70323;BME280;57735;56.264;43.898;2023-08-17T04:31:48;101246.88;;;20.27;84.10
70323;BME280;57735;56.264;43.898;2023-08-17T04:34:18;101242.88;;;20.23;83.63
70323;BME280;57735;56.264;43.898;2023-08-17T04:36:49;101240.94;;;20.17;83.83
70323;BME280;57735;56.264;43.898;2023-08-17T04:39:20;101243.84;;;20.15;84.16
70323;BME280;57735;56.264;43.898;2023-08-17T04:41:53;101248.03;;;20.18;83.93
70323;BME280;57735;56.264;43.898;2023-08-17T04:44:24;101250.19;;;20.29;83.62
70323;BME280;57735;56.264;43.898;2023-08-17T04:46:55;101244.94;;;20.42;83.42
70323;BME280;57735;56.264;43.898;2023-08-17T04:49:29;101255.41;;;20.52;83.04
70323;BME280;57735;56.264;43.898;2023-08-17T04:51:59;101250.88;;;20.59;82.59
70323;BME280;57735;56.264;43.898;2023-08-17T04:54:32;101251.31;;;20.63;82.51
70323;BME280;57735;56.264;43.898;2023-08-17T04:57:03;101252.59;;;20.67;82.22
70323;BME280;57735;56.264;43.898;2023-08-17T04:59:38;101254.91;;;20.70;82.20
70323;BME280;57735;56.264;43.898;2023-08-17T05:02:09;101252.06;;;20.78;82.04
70323;BME280;57735;56.264;43.898;2023-08-17T05:04:39;101252.28;;;20.83;81.82
70323;BME280;57735;56.264;43.898;2023-08-17T05:07:10;101250.25;;;20.92;81.27
70323;BME280;57735;56.264;43.898;2023-08-17T05:09:41;101256.34;;;21.00;81.32
70323;BME280;57735;56.264;43.898;2023-08-17T05:12:12;101259.50;;;21.04;81.04
70323;BME280;57735;56.264;43.898;2023-08-17T05:14:43;101255.06;;;20.96;81.25
70323;BME280;57735;56.264;43.898;2023-08-17T05:17:14;101256.97;;;21.02;81.32
70323;BME280;57735;56.264;43.898;2023-08-17T05:19:45;101259.75;;;21.15;81.22
70323;BME280;57735;56.264;43.898;2023-08-17T05:22:16;101259.22;;;21.27;81.00
70323;BME280;57735;56.264;43.898;2023-08-17T05:24:54;101260.06;;;21.34;80.55
70323;BME280;57735;56.264;43.898;2023-08-17T05:27:27;101262.19;;;21.38;80.23
70323;BME280;57735;56.264;43.898;2023-08-17T05:29:58;101259.91;;;21.42;79.91
70323;BME280;57735;56.264;43.898;2023-08-17T05:32:35;101261.38;;;21.51;79.97
70323;BME280;57735;56.264;43.898;2023-08-17T05:35:09;101257.03;;;21.56;79.67
70323;BME280;57735;56.264;43.898;2023-08-17T05:37:39;101248.06;;;21.63;79.47
70323;BME280;57735;56.264;43.898;2023-08-17T05:40:10;101246.41;;;21.68;79.37
70323;BME280;57735;56.264;43.898;2023-08-17T05:42:43;101253.09;;;21.79;79.33
70323;BME280;57735;56.264;43.898;2023-08-17T05:45:14;101249.19;;;21.94;78.96
70323;BME280;57735;56.264;43.898;2023-08-17T05:47:45;101251.72;;;22.03;78.13
70323;BME280;57735;56.264;43.898;2023-08-17T05:50:16;101249.00;;;22.16;77.81
70323;BME280;57735;56.264;43.898;2023-08-17T05:52:52;101255.28;;;22.29;77.65
70323;BME280;57735;56.264;43.898;2023-08-17T05:55:25;101259.47;;;22.39;77.31
70323;BME280;57735;56.264;43.898;2023-08-17T05:57:56;101255.69;;;22.46;76.47
70323;BME280;57735;56.264;43.898;2023-08-17T06:00:27;101256.53;;;22.53;76.02
70323;BME280;57735;56.264;43.898;2023-08-17T06:02:57;101262.34;;;22.63;75.68
70323;BME280;57735;56.264;43.898;2023-08-17T06:05:34;101258.59;;;22.71;75.60
70323;BME280;57735;56.264;43.898;2023-08-17T06:08:05;101259.22;;;22.80;75.25
70323;BME280;57735;56.264;43.898;2023-08-17T06:10:39;101260.06;;;22.87;74.69
70323;BME280;57735;56.264;43.898;2023-08-17T06:13:10;101267.16;;;22.94;74.26
70323;BME280;57735;56.264;43.898;2023-08-17T06:15:41;101262.75;;;23.00;74.01
70323;BME280;57735;56.264;43.898;2023-08-17T06:18:11;101258.13;;;23.07;73.59
70323;BME280;57735;56.264;43.898;2023-08-17T06:20:43;101263.72;;;23.19;73.42
70323;BME280;57735;56.264;43.898;2023-08-17T06:23:16;101256.81;;;23.23;72.91
70323;BME280;57735;56.264;43.898;2023-08-17T06:25:47;101253.84;;;23.31;73.19
70323;BME280;57735;56.264;43.898;2023-08-17T06:28:18;101258.00;;;23.40;72.94
70323;BME280;57735;56.264;43.898;2023-08-17T06:30:52;101254.19;;;23.54;72.77
70323;BME280;57735;56.264;43.898;2023-08-17T06:33:23;101251.38;;;23.67;72.72
70323;BME280;57735;56.264;43.898;2023-08-17T06:35:55;101249.91;;;23.72;71.98
70323;BME280;57735;56.264;43.898;2023-08-17T06:38:26;101245.47;;;23.77;70.98
70323;BME280;57735;56.264;43.898;2023-08-17T06:40:56;101255.66;;;23.88;70.97
70323;BME280;57735;56.264;43.898;2023-08-17T06:43:27;101258.94;;;23.97;70.67
70323;BME280;57735;56.264;43.898;2023-08-17T06:45:58;101248.00;;;24.04;70.34
70323;BME280;57735;56.264;43.898;2023-08-17T06:48:30;101249.63;;;24.11;70.27
70323;BME280;57735;56.264;43.898;2023-08-17T06:51:04;101252.50;;;24.16;69.92
70323;BME280;57735;56.264;43.898;2023-08-17T06:53:35;101241.56;;;24.23;70.08
70323;BME280;57735;56.264;43.898;2023-08-17T06:56:06;101240.88;;;24.34;70.27
70323;BME280;57735;56.264;43.898;2023-08-17T06:58:37;101243.84;;;24.51;67.81
70323;BME280;57735;56.264;43.898;2023-08-17T07:01:08;101247.53;;;24.63;67.82
70323;BME280;57735;56.264;43.898;2023-08-17T07:03:38;101254.13;;;24.74;67.52
70323;BME280;57735;56.264;43.898;2023-08-17T07:06:10;101251.41;;;24.92;65.96
70323;BME280;57735;56.264;43.898;2023-08-17T07:08:44;101251.41;;;24.92;66.04
70323;BME280;57735;56.264;43.898;2023-08-17T07:11:15;101242.41;;;24.91;65.81
70323;BME280;57735;56.264;43.898;2023-08-17T07:13:46;101245.69;;;25.00;65.11
70323;BME280;57735;56.264;43.898;2023-08-17T07:16:17;101240.66;;;25.15;65.19
70323;BME280;57735;56.264;43.898;2023-08-17T07:18:50;101249.63;;;25.22;65.00
70323;BME280;57735;56.264;43.898;2023-08-17T07:21:21;101241.72;;;25.32;64.63
70323;BME280;57735;56.264;43.898;2023-08-17T07:23:54;101248.81;;;25.52;63.76
70323;BME280;57735;56.264;43.898;2023-08-17T07:26:25;101245.81;;;25.42;63.53
70323;BME280;57735;56.264;43.898;2023-08-17T07:28:56;101238.69;;;25.41;63.46
70323;BME280;57735;56.264;43.898;2023-08-17T07:31:27;101244.38;;;25.39;63.79
70323;BME280;57735;56.264;43.898;2023-08-17T07:33:58;101243.03;;;25.30;63.47
70323;BME280;57735;56.264;43.898;2023-08-17T07:36:41;101244.44;;;25.32;62.94
70323;BME280;57735;56.264;43.898;2023-08-17T07:39:12;101246.25;;;25.38;63.38
70323;BME280;57735;56.264;43.898;2023-08-17T07:41:43;101235.63;;;25.49;63.53
70323;BME280;57735;56.264;43.898;2023-08-17T07:44:14;101236.97;;;25.58;62.72
70323;BME280;57735;56.264;43.898;2023-08-17T07:46:45;101233.41;;;25.57;62.00
70323;BME280;57735;56.264;43.898;2023-08-17T07:49:16;101233.69;;;25.67;61.93
70323;BME280;57735;56.264;43.898;2023-08-17T07:51:54;101233.00;;;25.72;61.60
70323;BME280;57735;56.264;43.898;2023-08-17T07:54:25;101227.56;;;25.84;61.91
70323;BME280;57735;56.264;43.898;2023-08-17T07:56:56;101227.72;;;25.89;61.18
70323;BME280;57735;56.264;43.898;2023-08-17T07:59:26;101225.72;;;25.96;60.36
70323;BME280;57735;56.264;43.898;2023-08-17T08:01:57;101231.81;;;26.10;60.68
70323;BME280;57735;56.264;43.898;2023-08-17T08:04:28;101236.44;;;26.21;59.91
70323;BME280;57735;56.264;43.898;2023-08-17T08:06:59;101228.53;;;26.31;60.00
70323;BME280;57735;56.264;43.898;2023-08-17T08:09:30;101241.47;;;26.35;59.03
70323;BME280;57735;56.264;43.898;2023-08-17T08:12:01;101234.47;;;26.39;59.24
70323;BME280;57735;56.264;43.898;2023-08-17T08:14:32;101235.06;;;26.41;59.19
70323;BME280;57735;56.264;43.898;2023-08-17T08:17:03;101239.34;;;26.49;59.75
70323;BME280;57735;56.264;43.898;2023-08-17T08:19:34;101239.84;;;26.58;58.88
70323;BME280;57735;56.264;43.898;2023-08-17T08:22:05;101242.44;;;26.53;58.07
70323;BME280;57735;56.264;43.898;2023-08-17T08:24:36;101238.28;;;26.50;58.19
70323;BME280;57735;56.264;43.898;2023-08-17T08:27:09;101232.81;;;26.50;58.66
70323;BME280;57735;56.264;43.898;2023-08-17T08:29:43;101240.19;;;26.61;58.86
70323;BME280;57735;56.264;43.898;2023-08-17T08:32:13;101235.78;;;26.72;58.25
70323;BME280;57735;56.264;43.898;2023-08-17T08:34:46;101236.59;;;26.72;57.98
70323;BME280;57735;56.264;43.898;2023-08-17T08:37:20;101232.91;;;26.67;57.99
70323;BME280;57735;56.264;43.898;2023-08-17T08:39:52;101238.75;;;26.70;58.31
70323;BME280;57735;56.264;43.898;2023-08-17T08:42:25;101230.31;;;26.72;58.24
70323;BME280;57735;56.264;43.898;2023-08-17T08:44:56;101240.53;;;26.76;58.03
70323;BME280;57735;56.264;43.898;2023-08-17T08:47:28;101235.75;;;26.84;58.09
70323;BME280;57735;56.264;43.898;2023-08-17T08:50:05;101237.53;;;26.90;57.78
70323;BME280;57735;56.264;43.898;2023-08-17T08:52:50;101231.59;;;26.93;58.16
70323;BME280;57735;56.264;43.898;2023-08-17T08:55:31;101241.34;;;27.00;58.16
70323;BME280;57735;56.264;43.898;2023-08-17T08:58:04;101230.16;;;27.02;57.58
70323;BME280;57735;56.264;43.898;2023-08-17T09:00:38;101229.22;;;27.08;57.02
70323;BME280;57735;56.264;43.898;2023-08-17T09:03:09;101240.47;;;27.23;57.55
70323;BME280;57735;56.264;43.898;2023-08-17T09:05:42;101237.38;;;27.31;57.14
70323;BME280;57735;56.264;43.898;2023-08-17T09:08:15;101238.50;;;27.35;56.73
70323;BME280;57735;56.264;43.898;2023-08-17T09:10:46;101233.16;;;27.40;57.14
70323;BME280;57735;56.264;43.898;2023-08-17T09:13:17;101237.31;;;27.43;57.20
70323;BME280;57735;56.264;43.898;2023-08-17T09:15:48;101224.69;;;27.42;57.11
70323;BME280;57735;56.264;43.898;2023-08-17T09:18:19;101225.16;;;27.39;56.82
70323;BME280;57735;56.264;43.898;2023-08-17T09:20:51;101228.25;;;27.42;56.89
70323;BME280;57735;56.264;43.898;2023-08-17T09:23:22;101230.00;;;27.49;57.56
70323;BME280;57735;56.264;43.898;2023-08-17T09:25:53;101231.44;;;27.63;57.23
70323;BME280;57735;56.264;43.898;2023-08-17T09:28:38;101235.75;;;27.75;56.70
70323;BME280;57735;56.264;43.898;2023-08-17T09:31:09;101230.09;;;27.82;55.78
70323;BME280;57735;56.264;43.898;2023-08-17T09:33:43;101223.16;;;27.91;55.98
70323;BME280;57735;56.264;43.898;2023-08-17T09:36:22;101225.16;;;27.96;55.88
70323;BME280;57735;56.264;43.898;2023-08-17T09:38:53;101228.81;;;28.01;56.22
70323;BME280;57735;56.264;43.898;2023-08-17T09:41:28;101226.75;;;28.08;55.42
70323;BME280;57735;56.264;43.898;2023-08-17T09:44:00;101222.19;;;28.14;55.09
70323;BME280;57735;56.264;43.898;2023-08-17T09:46:31;101220.53;;;28.13;55.18
70323;BME280;57735;56.264;43.898;2023-08-17T09:49:02;101219.03;;;28.22;55.13
70323;BME280;57735;56.264;43.898;2023-08-17T09:51:36;101229.84;;;28.29;53.89
70323;BME280;57735;56.264;43.898;2023-08-17T09:54:07;101229.34;;;28.32;53.95
70323;BME280;57735;56.264;43.898;2023-08-17T09:56:37;101237.66;;;28.37;53.94
70323;BME280;57735;56.264;43.898;2023-08-17T09:59:11;101240.13;;;28.38;53.36
70323;BME280;57735;56.264;43.898;2023-08-17T10:01:42;101227.75;;;28.36;52.19
70323;BME280;57735;56.264;43.898;2023-08-17T10:04:16;101237.66;;;28.37;52.51
70323;BME280;57735;56.264;43.898;2023-08-17T10:07:00;101224.84;;;28.42;52.97
70323;BME280;57735;56.264;43.898;2023-08-17T10:09:39;101211.28;;;28.53;52.76
70323;BME280;57735;56.264;43.898;2023-08-17T10:12:15;101218.59;;;28.64;52.78
70323;BME280;57735;56.264;43.898;2023-08-17T10:14:49;101221.84;;;28.61;52.38
70323;BME280;57735;56.264;43.898;2023-08-17T10:17:31;101223.25;;;28.63;52.45
70323;BME280;57735;56.264;43.898;2023-08-17T10:20:06;101213.97;;;28.69;52.90
70323;BME280;57735;56.264;43.898;2023-08-17T10:22:51;101217.88;;;28.73;51.89
70323;BME280;57735;56.264;43.898;2023-08-17T10:25:26;101214.63;;;28.76;52.20
70323;BME280;57735;56.264;43.898;2023-08-17T10:27:58;101220.53;;;28.85;52.18
70323;BME280;57735;56.264;43.898;2023-08-17T10:30:31;101221.69;;;28.89;51.17
70323;BME280;57735;56.264;43.898;2023-08-17T10:33:05;101213.28;;;28.96;51.30
70323;BME280;57735;56.264;43.898;2023-08-17T10:35:37;101209.47;;;28.97;50.59
70323;BME280;57735;56.264;43.898;2023-08-17T10:38:10;101206.47;;;28.98;50.44
70323;BME280;57735;56.264;43.898;2023-08-17T10:40:43;101222.09;;;28.98;49.86
70323;BME280;57735;56.264;43.898;2023-08-17T10:43:14;101217.63;;;28.92;49.70
70323;BME280;57735;56.264;43.898;2023-08-17T10:45:47;101214.38;;;28.95;50.15
70323;BME280;57735;56.264;43.898;2023-08-17T10:48:27;101215.78;;;28.97;49.64
70323;BME280;57735;56.264;43.898;2023-08-17T10:51:03;101214.69;;;28.98;49.18
70323;BME280;57735;56.264;43.898;2023-08-17T10:53:35;101216.16;;;29.06;49.85
70323;BME280;57735;56.264;43.898;2023-08-17T10:56:16;101213.47;;;29.11;49.56
70323;BME280;57735;56.264;43.898;2023-08-17T10:58:51;101200.91;;;29.15;50.05
70323;BME280;57735;56.264;43.898;2023-08-17T11:01:42;101208.66;;;29.23;49.53
70323;BME280;57735;56.264;43.898;2023-08-17T11:04:16;101198.25;;;29.25;49.46
70323;BME280;57735;56.264;43.898;2023-08-17T11:07:00;101205.75;;;29.35;49.41
70323;BME280;57735;56.264;43.898;2023-08-17T11:09:35;101195.97;;;29.39;49.18
70323;BME280;57735;56.264;43.898;2023-08-17T11:12:24;101201.19;;;29.40;47.57
70323;BME280;57735;56.264;43.898;2023-08-17T11:14:57;101193.69;;;29.36;48.38
70323;BME280;57735;56.264;43.898;2023-08-17T11:17:29;101191.78;;;29.36;48.97
70323;BME280;57735;56.264;43.898;2023-08-17T11:20:04;101187.72;;;29.39;48.65
70323;BME280;57735;56.264;43.898;2023-08-17T11:22:40;101189.03;;;29.36;49.09
70323;BME280;57735;56.264;43.898;2023-08-17T11:25:11;101183.63;;;29.41;48.90
70323;BME280;57735;56.264;43.898;2023-08-17T11:27:42;101190.78;;;29.42;48.30
70323;BME280;57735;56.264;43.898;2023-08-17T11:30:14;101202.03;;;29.41;49.05
70323;BME280;57735;56.264;43.898;2023-08-17T11:32:45;101189.13;;;29.41;48.02
70323;BME280;57735;56.264;43.898;2023-08-17T11:35:17;101187.13;;;29.37;47.97
70323;BME280;57735;56.264;43.898;2023-08-17T11:37:49;101190.28;;;29.45;48.47
70323;BME280;57735;56.264;43.898;2023-08-17T11:40:20;101186.78;;;29.55;48.89
70323;BME280;57735;56.264;43.898;2023-08-17T11:42:52;101187.72;;;29.66;48.83
70323;BME280;57735;56.264;43.898;2023-08-17T11:45:30;101183.34;;;29.70;48.69
70323;BME280;57735;56.264;43.898;2023-08-17T11:48:02;101188.34;;;29.73;48.09
70323;BME280;57735;56.264;43.898;2023-08-17T11:50:38;101177.34;;;29.73;48.27
70323;BME280;57735;56.264;43.898;2023-08-17T11:53:10;101177.91;;;29.75;47.87
70323;BME280;57735;56.264;43.898;2023-08-17T11:55:41;101184.03;;;29.82;47.44
70323;BME280;57735;56.264;43.898;2023-08-17T11:58:12;101174.13;;;29.81;47.93
70323;BME280;57735;56.264;43.898;2023-08-17T12:00:44;101173.50;;;29.74;47.05
70323;BME280;57735;56.264;43.898;2023-08-17T12:03:18;101174.84;;;29.71;47.18
70323;BME280;57735;56.264;43.898;2023-08-17T12:05:50;101172.41;;;29.75;47.40
70323;BME280;57735;56.264;43.898;2023-08-17T12:08:21;101165.31;;;29.79;46.47
70323;BME280;57735;56.264;43.898;2023-08-17T12:10:53;101165.03;;;29.80;46.75
70323;BME280;57735;56.264;43.898;2023-08-17T12:13:33;101163.97;;;29.86;46.76
70323;BME280;57735;56.264;43.898;2023-08-17T12:16:04;101164.28;;;29.90;46.55
70323;BME280;57735;56.264;43.898;2023-08-17T12:18:35;101161.09;;;29.98;46.74
70323;BME280;57735;56.264;43.898;2023-08-17T12:21:06;101167.72;;;30.02;45.48
70323;BME280;57735;56.264;43.898;2023-08-17T12:23:40;101162.50;;;30.06;44.98
70323;BME280;57735;56.264;43.898;2023-08-17T12:26:18;101157.38;;;30.14;45.45
70323;BME280;57735;56.264;43.898;2023-08-17T12:28:49;101180.31;;;30.30;44.98
70323;BME280;57735;56.264;43.898;2023-08-17T12:31:21;101159.16;;;30.41;43.95
70323;BME280;57735;56.264;43.898;2023-08-17T12:33:53;101166.81;;;30.76;43.87
70323;BME280;57735;56.264;43.898;2023-08-17T12:36:24;101157.91;;;31.21;43.09
70323;BME280;57735;56.264;43.898;2023-08-17T12:38:54;101156.09;;;31.77;41.45
70323;BME280;57735;56.264;43.898;2023-08-17T12:41:25;101154.16;;;32.23;41.04
70323;BME280;57735;56.264;43.898;2023-08-17T12:43:57;101147.16;;;32.51;40.53
70323;BME280;57735;56.264;43.898;2023-08-17T12:46:29;101159.53;;;32.74;39.54
70323;BME280;57735;56.264;43.898;2023-08-17T12:49:03;101157.31;;;32.71;39.28
70323;BME280;57735;56.264;43.898;2023-08-17T12:51:34;101158.09;;;32.87;38.78
70323;BME280;57735;56.264;43.898;2023-08-17T12:54:08;101160.00;;;32.97;38.36
70323;BME280;57735;56.264;43.898;2023-08-17T12:56:39;101165.44;;;33.12;38.53
70323;BME280;57735;56.264;43.898;2023-08-17T12:59:10;101158.09;;;33.41;38.47
70323;BME280;57735;56.264;43.898;2023-08-17T13:01:42;101158.50;;;33.63;37.78
70323;BME280;57735;56.264;43.898;2023-08-17T13:04:13;101164.41;;;33.86;36.99
70323;BME280;57735;56.264;43.898;2023-08-17T13:06:44;101166.97;;;34.11;36.80
70323;BME280;57735;56.264;43.898;2023-08-17T13:09:17;101163.31;;;34.45;36.26
70323;BME280;57735;56.264;43.898;2023-08-17T13:11:53;101163.47;;;34.82;35.55